sensor_id;sensor_type;location;lat;lon;timestamp;P1;durP1;ratioP1;P2;durP2;ratioP2
9716;SDS011;4897;43.570;27.832;2024-01-15T00:00:27;26.67;;;24.67;;
9716;SDS011;4897;43.570;27.832;2024-01-15T00:02:54;27.83;;;25.45;;
9716;SDS011;4897;43.570;27.832;2024-01-15T00:05:22;27.85;;;25.83;;
9716;SDS011;4897;43.570;27.832;2024-01-15T00:07:49;27.27;;;25.13;;
9716;SDS011;4897;43.570;27.832;2024-01-15T00:10:17;25.60;;;23.52;;
9716;SDS011;4897;43.570;27.832;2024-01-15T00:12:44;26.02;;;24.02;;
9716;SDS011;4897;43.570;27.832;2024-01-15T00:15:11;27.77;;;25.77;;
9716;SDS011;4897;43.570;27.832;2024-01-15T00:17:38;23.77;;;21.98;;
9716;SDS011;4897;43.570;27.832;2024-01-15T00:20:06;20.70;;;19.10;;
9716;SDS011;4897;43.570;27.832;2024-01-15T00:22:33;23.40;;;21.60;;
9716;SDS011;4897;43.570;27.832;2024-01-15T00:25:01;22.90;;;21.13;;
9716;SDS011;4897;43.570;27.832;2024-01-15T00:27:30;24.38;;;22.58;;
9716;SDS011;4897;43.570;27.832;2024-01-15T00:29:56;25.50;;;23.50;;
9716;SDS011;4897;43.570;27.832;2024-01-15T00:32:23;26.48;;;24.52;;
9716;SDS011;4897;43.570;27.832;2024-01-15T00:34:50;30.83;;;28.52;;
9716;SDS011;4897;43.570;27.832;2024-01-15T00:37:17;28.48;;;26.38;;
9716;SDS011;4897;43.570;27.832;2024-01-15T00:39:46;23.15;;;21.35;;
9716;SDS011;4897;43.570;27.832;2024-01-15T00:42:13;22.48;;;20.58;;
9716;SDS011;4897;43.570;27.832;2024-01-15T00:44:44;19.48;;;17.98;;
9716;SDS011;4897;43.570;27.832;2024-01-15T00:47:11;16.17;;;14.93;;
9716;SDS011;4897;43.570;27.832;2024-01-15T00:49:38;15.98;;;14.57;;
9716;SDS011;4897;43.570;27.832;2024-01-15T00:52:05;13.57;;;12.35;;
9716;SDS011;4897;43.570;27.832;2024-01-15T00:54:32;32.60;;;30.20;;
9716;SDS011;4897;43.570;27.832;2024-01-15T00:56:59;14.68;;;13.35;;
9716;SDS011;4897;43.570;27.832;2024-01-15T00:59:26;22.10;;;20.40;;
9716;SDS011;4897;43.570;27.832;2024-01-15T01:01:54;27.42;;;25.33;;
9716;SDS011;4897;43.570;27.832;2024-01-15T01:04:21;23.45;;;21.65;;
9716;SDS011;4897;43.570;27.832;2024-01-15T01:06:48;26.80;;;24.75;;
9716;SDS011;4897;43.570;27.832;2024-01-15T01:09:15;26.02;;;24.02;;
9716;SDS011;4897;43.570;27.832;2024-01-15T01:11:42;25.83;;;23.92;;
9716;SDS011;4897;43.570;27.832;2024-01-15T01:14:09;23.48;;;21.67;;
9716;SDS011;4897;43.570;27.832;2024-01-15T01:16:37;24.05;;;22.25;;
9716;SDS011;4897;43.570;27.832;2024-01-15T01:19:06;25.30;;;23.50;;
9716;SDS011;4897;43.570;27.832;2024-01-15T01:21:33;27.38;;;25.25;;
9716;SDS011;4897;43.570;27.832;2024-01-15T01:24:00;25.73;;;23.83;;
9716;SDS011;4897;43.570;27.832;2024-01-15T01:26:27;28.50;;;26.15;;
9716;SDS011;4897;43.570;27.832;2024-01-15T01:28:54;24.35;;;22.50;;
9716;SDS011;4897;43.570;27.832;2024-01-15T01:31:20;25.05;;;23.15;;
9716;SDS011;4897;43.570;27.832;2024-01-15T01:33:47;21.88;;;20.17;;
9716;SDS011;4897;43.570;27.832;2024-01-15T01:36:16;20.10;;;18.55;;
9716;SDS011;4897;43.570;27.832;2024-01-15T01:38:42;15.15;;;13.75;;
9716;SDS011;4897;43.570;27.832;2024-01-15T01:41:10;16.83;;;15.43;;
9716;SDS011;4897;43.570;27.832;2024-01-15T01:43:37;17.02;;;15.73;;
9716;SDS011;4897;43.570;27.832;2024-01-15T01:46:04;19.48;;;17.90;;
9716;SDS011;4897;43.570;27.832;2024-01-15T01:48:36;21.67;;;19.98;;
9716;SDS011;4897;43.570;27.832;2024-01-15T01:51:03;23.23;;;21.40;;
9716;SDS011;4897;43.570;27.832;2024-01-15T01:53:32;22.45;;;20.38;;
9716;SDS011;4897;43.570;27.832;2024-01-15T01:56:01;26.63;;;24.63;;
9716;SDS011;4897;43.570;27.832;2024-01-15T01:58:29;28.08;;;25.98;;
9716;SDS011;4897;43.570;27.832;2024-01-15T02:00:58;28.33;;;26.13;;
9716;SDS011;4897;43.570;27.832;2024-01-15T02:03:25;27.13;;;25.20;;
9716;SDS011;4897;43.570;27.832;2024-01-15T02:05:53;26.98;;;24.77;;
9716;SDS011;4897;43.570;27.832;2024-01-15T02:08:20;27.33;;;25.13;;
9716;SDS011;4897;43.570;27.832;2024-01-15T02:10:49;27.50;;;25.30;;
9716;SDS011;4897;43.570;27.832;2024-01-15T02:13:16;24.33;;;22.63;;
9716;SDS011;4897;43.570;27.832;2024-01-15T02:15:44;25.25;;;23.35;;
9716;SDS011;4897;43.570;27.832;2024-01-15T02:18:11;26.33;;;24.33;;
9716;SDS011;4897;43.570;27.832;2024-01-15T02:20:38;26.17;;;24.08;;
9716;SDS011;4897;43.570;27.832;2024-01-15T02:23:09;28.83;;;26.67;;
9716;SDS011;4897;43.570;27.832;2024-01-15T02:25:37;28.20;;;26.10;;
9716;SDS011;4897;43.570;27.832;2024-01-15T02:28:06;30.90;;;28.63;;
9716;SDS011;4897;43.570;27.832;2024-01-15T02:30:34;29.52;;;27.33;;
9716;SDS011;4897;43.570;27.832;2024-01-15T02:33:06;27.33;;;25.33;;
9716;SDS011;4897;43.570;27.832;2024-01-15T02:35:33;24.73;;;22.90;;
9716;SDS011;4897;43.570;27.832;2024-01-15T02:38:07;23.08;;;21.13;;
9716;SDS011;4897;43.570;27.832;2024-01-15T02:40:36;23.30;;;21.60;;
9716;SDS011;4897;43.570;27.832;2024-01-15T02:43:03;25.75;;;23.85;;
9716;SDS011;4897;43.570;27.832;2024-01-15T02:45:30;28.25;;;26.05;;
9716;SDS011;4897;43.570;27.832;2024-01-15T02:47:57;29.35;;;26.92;;
9716;SDS011;4897;43.570;27.832;2024-01-15T02:50:24;28.13;;;25.92;;
9716;SDS011;4897;43.570;27.832;2024-01-15T02:52:52;28.70;;;26.50;;
9716;SDS011;4897;43.570;27.832;2024-01-15T02:55:19;27.65;;;25.63;;
9716;SDS011;4897;43.570;27.832;2024-01-15T02:57:47;27.77;;;25.67;;
9716;SDS011;4897;43.570;27.832;2024-01-15T03:00:14;23.42;;;21.50;;
9716;SDS011;4897;43.570;27.832;2024-01-15T03:02:44;21.23;;;19.63;;
9716;SDS011;4897;43.570;27.832;2024-01-15T03:05:12;21.98;;;20.38;;
9716;SDS011;4897;43.570;27.832;2024-01-15T03:07:42;21.80;;;20.10;;
9716;SDS011;4897;43.570;27.832;2024-01-15T03:10:11;21.85;;;19.92;;
9716;SDS011;4897;43.570;27.832;2024-01-15T03:12:38;23.00;;;21.30;;
9716;SDS011;4897;43.570;27.832;2024-01-15T03:15:09;24.55;;;22.70;;
9716;SDS011;4897;43.570;27.832;2024-01-15T03:17:38;27.63;;;25.52;;
9716;SDS011;4897;43.570;27.832;2024-01-15T03:20:05;25.55;;;23.65;;
9716;SDS011;4897;43.570;27.832;2024-01-15T03:22:32;27.45;;;25.50;;
9716;SDS011;4897;43.570;27.832;2024-01-15T03:24:59;24.92;;;23.02;;
9716;SDS011;4897;43.570;27.832;2024-01-15T03:27:28;26.80;;;24.80;;
9716;SDS011;4897;43.570;27.832;2024-01-15T03:29:55;25.67;;;23.73;;
9716;SDS011;4897;43.570;27.832;2024-01-15T03:32:24;29.77;;;27.58;;
9716;SDS011;4897;43.570;27.832;2024-01-15T03:34:51;26.70;;;24.60;;
9716;SDS011;4897;43.570;27.832;2024-01-15T03:37:18;21.92;;;20.13;;
9716;SDS011;4897;43.570;27.832;2024-01-15T03:39:48;17.30;;;15.90;;
9716;SDS011;4897;43.570;27.832;2024-01-15T03:42:15;13.57;;;12.48;;
9716;SDS011;4897;43.570;27.832;2024-01-15T03:44:42;16.50;;;15.20;;
9716;SDS011;4897;43.570;27.832;2024-01-15T03:47:09;12.80;;;11.75;;
9716;SDS011;4897;43.570;27.832;2024-01-15T03:49:37;13.07;;;11.98;;
9716;SDS011;4897;43.570;27.832;2024-01-15T03:52:04;13.50;;;12.35;;
9716;SDS011;4897;43.570;27.832;2024-01-15T03:54:34;29.98;;;27.60;;
9716;SDS011;4897;43.570;27.832;2024-01-15T03:57:01;31.98;;;29.58;;
9716;SDS011;4897;43.570;27.832;2024-01-15T03:59:31;34.08;;;31.48;;
9716;SDS011;4897;43.570;27.832;2024-01-15T04:01:57;31.20;;;28.80;;
9716;SDS011;4897;43.570;27.832;2024-01-15T04:04:26;31.45;;;29.05;;
9716;SDS011;4897;43.570;27.832;2024-01-15T04:06:56;26.23;;;24.33;;
9716;SDS011;4897;43.570;27.832;2024-01-15T04:09:22;26.08;;;24.10;;
9716;SDS011;4897;43.570;27.832;2024-01-15T04:11:49;23.58;;;21.77;;
9716;SDS011;4897;43.570;27.832;2024-01-15T04:14:16;20.90;;;19.30;;
9716;SDS011;4897;43.570;27.832;2024-01-15T04:16:43;22.48;;;20.45;;
9716;SDS011;4897;43.570;27.832;2024-01-15T04:19:10;23.30;;;21.40;;
9716;SDS011;4897;43.570;27.832;2024-01-15T04:21:37;25.48;;;23.38;;
9716;SDS011;4897;43.570;27.832;2024-01-15T04:24:08;27.45;;;25.33;;
9716;SDS011;4897;43.570;27.832;2024-01-15T04:26:34;25.65;;;23.75;;
9716;SDS011;4897;43.570;27.832;2024-01-15T04:29:01;27.20;;;25.20;;
9716;SDS011;4897;43.570;27.832;2024-01-15T04:31:28;27.75;;;25.65;;
9716;SDS011;4897;43.570;27.832;2024-01-15T04:33:55;29.15;;;26.40;;
9716;SDS011;4897;43.570;27.832;2024-01-15T04:36:22;26.75;;;24.75;;
9716;SDS011;4897;43.570;27.832;2024-01-15T04:38:49;26.88;;;24.88;;
9716;SDS011;4897;43.570;27.832;2024-01-15T04:41:17;26.65;;;24.65;;
9716;SDS011;4897;43.570;27.832;2024-01-15T04:43:44;24.20;;;22.40;;
9716;SDS011;4897;43.570;27.832;2024-01-15T04:46:11;22.73;;;20.95;;
9716;SDS011;4897;43.570;27.832;2024-01-15T04:48:38;19.08;;;17.67;;
9716;SDS011;4897;43.570;27.832;2024-01-15T04:51:05;20.63;;;18.58;;
9716;SDS011;4897;43.570;27.832;2024-01-15T04:53:35;22.70;;;20.50;;
9716;SDS011;4897;43.570;27.832;2024-01-15T04:56:02;18.60;;;17.20;;
9716;SDS011;4897;43.570;27.832;2024-01-15T04:58:31;20.48;;;18.85;;
9716;SDS011;4897;43.570;27.832;2024-01-15T05:00:58;19.95;;;18.45;;
9716;SDS011;4897;43.570;27.832;2024-01-15T05:03:25;19.50;;;18.08;;
9716;SDS011;4897;43.570;27.832;2024-01-15T05:05:52;21.05;;;19.45;;
9716;SDS011;4897;43.570;27.832;2024-01-15T05:08:19;20.83;;;19.23;;
9716;SDS011;4897;43.570;27.832;2024-01-15T05:10:46;16.33;;;14.85;;
9716;SDS011;4897;43.570;27.832;2024-01-15T05:13:13;19.40;;;17.95;;
9716;SDS011;4897;43.570;27.832;2024-01-15T05:15:41;18.48;;;16.88;;
9716;SDS011;4897;43.570;27.832;2024-01-15T05:18:08;19.95;;;18.15;;
9716;SDS011;4897;43.570;27.832;2024-01-15T05:20:35;22.45;;;20.85;;
9716;SDS011;4897;43.570;27.832;2024-01-15T05:23:03;23.02;;;21.08;;
9716;SDS011;4897;43.570;27.832;2024-01-15T05:25:30;18.10;;;16.70;;
9716;SDS011;4897;43.570;27.832;2024-01-15T05:27:57;17.02;;;15.65;;
9716;SDS011;4897;43.570;27.832;2024-01-15T05:30:24;17.05;;;15.65;;
9716;SDS011;4897;43.570;27.832;2024-01-15T05:32:52;13.38;;;12.38;;
9716;SDS011;4897;43.570;27.832;2024-01-15T05:35:19;15.98;;;14.75;;
9716;SDS011;4897;43.570;27.832;2024-01-15T05:37:46;15.73;;;14.23;;
9716;SDS011;4897;43.570;27.832;2024-01-15T05:40:13;16.77;;;15.27;;
9716;SDS011;4897;43.570;27.832;2024-01-15T05:42:41;18.40;;;17.00;;
9716;SDS011;4897;43.570;27.832;2024-01-15T05:45:08;18.88;;;17.27;;
9716;SDS011;4897;43.570;27.832;2024-01-15T05:47:35;21.75;;;19.85;;
9716;SDS011;4897;43.570;27.832;2024-01-15T05:50:04;24.70;;;22.70;;
9716;SDS011;4897;43.570;27.832;2024-01-15T05:52:32;19.35;;;17.65;;
9716;SDS011;4897;43.570;27.832;2024-01-15T05:54:59;20.27;;;18.58;;
9716;SDS011;4897;43.570;27.832;2024-01-15T05:57:26;18.60;;;16.92;;
9716;SDS011;4897;43.570;27.832;2024-01-15T05:59:53;18.83;;;17.27;;
9716;SDS011;4897;43.570;27.832;2024-01-15T06:02:19;22.00;;;19.90;;
9716;SDS011;4897;43.570;27.832;2024-01-15T06:04:46;21.65;;;19.75;;
9716;SDS011;4897;43.570;27.832;2024-01-15T06:07:15;21.10;;;19.40;;
9716;SDS011;4897;43.570;27.832;2024-01-15T06:09:41;17.75;;;16.30;;
9716;SDS011;4897;43.570;27.832;2024-01-15T06:12:08;22.85;;;20.60;;
9716;SDS011;4897;43.570;27.832;2024-01-15T06:14:35;19.50;;;17.85;;
9716;SDS011;4897;43.570;27.832;2024-01-15T06:17:02;16.90;;;15.60;;
9716;SDS011;4897;43.570;27.832;2024-01-15T06:19:29;17.10;;;14.27;;
9716;SDS011;4897;43.570;27.832;2024-01-15T06:21:56;15.52;;;14.07;;
9716;SDS011;4897;43.570;27.832;2024-01-15T06:24:24;23.10;;;17.05;;
9716;SDS011;4897;43.570;27.832;2024-01-15T06:26:51;25.80;;;19.13;;
9716;SDS011;4897;43.570;27.832;2024-01-15T06:29:18;34.53;;;22.73;;
9716;SDS011;4897;43.570;27.832;2024-01-15T06:31:45;20.13;;;18.08;;
9716;SDS011;4897;43.570;27.832;2024-01-15T06:34:12;18.77;;;16.88;;
9716;SDS011;4897;43.570;27.832;2024-01-15T06:36:39;19.58;;;17.67;;
9716;SDS011;4897;43.570;27.832;2024-01-15T06:39:06;20.23;;;18.52;;
9716;SDS011;4897;43.570;27.832;2024-01-15T06:41:34;21.23;;;19.33;;
9716;SDS011;4897;43.570;27.832;2024-01-15T06:44:06;22.80;;;20.83;;
9716;SDS011;4897;43.570;27.832;2024-01-15T06:46:34;25.65;;;23.35;;
9716;SDS011;4897;43.570;27.832;2024-01-15T06:49:01;28.65;;;25.88;;
9716;SDS011;4897;43.570;27.832;2024-01-15T06:51:28;24.25;;;21.90;;
9716;SDS011;4897;43.570;27.832;2024-01-15T06:53:55;18.50;;;16.92;;
9716;SDS011;4897;43.570;27.832;2024-01-15T06:56:22;19.17;;;17.45;;
9716;SDS011;4897;43.570;27.832;2024-01-15T06:58:51;20.38;;;18.67;;
9716;SDS011;4897;43.570;27.832;2024-01-15T07:01:17;18.85;;;17.05;;
9716;SDS011;4897;43.570;27.832;2024-01-15T07:03:45;20.80;;;18.90;;
9716;SDS011;4897;43.570;27.832;2024-01-15T07:06:12;24.60;;;22.15;;
9716;SDS011;4897;43.570;27.832;2024-01-15T07:08:39;20.98;;;19.27;;
9716;SDS011;4897;43.570;27.832;2024-01-15T07:11:06;19.33;;;17.55;;
9716;SDS011;4897;43.570;27.832;2024-01-15T07:13:33;18.13;;;16.42;;
9716;SDS011;4897;43.570;27.832;2024-01-15T07:16:02;17.85;;;16.25;;
9716;SDS011;4897;43.570;27.832;2024-01-15T07:18:29;19.25;;;17.55;;
9716;SDS011;4897;43.570;27.832;2024-01-15T07:20:58;17.92;;;16.17;;
9716;SDS011;4897;43.570;27.832;2024-01-15T07:23:26;16.80;;;15.27;;
9716;SDS011;4897;43.570;27.832;2024-01-15T07:25:53;20.20;;;18.40;;
9716;SDS011;4897;43.570;27.832;2024-01-15T07:28:22;18.95;;;17.35;;
9716;SDS011;4897;43.570;27.832;2024-01-15T07:30:49;19.00;;;17.35;;
9716;SDS011;4897;43.570;27.832;2024-01-15T07:33:17;19.25;;;17.65;;
9716;SDS011;4897;43.570;27.832;2024-01-15T07:35:44;20.13;;;18.40;;
9716;SDS011;4897;43.570;27.832;2024-01-15T07:38:11;20.95;;;19.05;;
9716;SDS011;4897;43.570;27.832;2024-01-15T07:40:44;23.13;;;20.20;;
9716;SDS011;4897;43.570;27.832;2024-01-15T07:43:17;23.17;;;21.05;;
9716;SDS011;4897;43.570;27.832;2024-01-15T07:45:44;20.70;;;18.65;;
9716;SDS011;4897;43.570;27.832;2024-01-15T07:48:11;20.38;;;18.55;;
9716;SDS011;4897;43.570;27.832;2024-01-15T07:50:42;19.75;;;18.05;;
9716;SDS011;4897;43.570;27.832;2024-01-15T07:53:12;19.50;;;17.95;;
9716;SDS011;4897;43.570;27.832;2024-01-15T07:55:41;24.67;;;17.48;;
9716;SDS011;4897;43.570;27.832;2024-01-15T07:58:11;19.45;;;17.85;;
9716;SDS011;4897;43.570;27.832;2024-01-15T08:00:38;17.02;;;15.63;;
9716;SDS011;4897;43.570;27.832;2024-01-15T08:03:06;16.20;;;14.90;;
9716;SDS011;4897;43.570;27.832;2024-01-15T08:05:33;15.02;;;13.73;;
9716;SDS011;4897;43.570;27.832;2024-01-15T08:08:01;15.90;;;14.40;;
9716;SDS011;4897;43.570;27.832;2024-01-15T08:10:28;17.88;;;16.17;;
9716;SDS011;4897;43.570;27.832;2024-01-15T08:12:55;19.30;;;17.60;;
9716;SDS011;4897;43.570;27.832;2024-01-15T08:15:22;21.00;;;17.70;;
9716;SDS011;4897;43.570;27.832;2024-01-15T08:17:49;18.25;;;16.55;;
9716;SDS011;4897;43.570;27.832;2024-01-15T08:20:16;20.92;;;19.23;;
9716;SDS011;4897;43.570;27.832;2024-01-15T08:22:44;18.67;;;17.17;;
9716;SDS011;4897;43.570;27.832;2024-01-15T08:25:13;19.45;;;17.88;;
9716;SDS011;4897;43.570;27.832;2024-01-15T08:27:40;18.52;;;17.02;;
9716;SDS011;4897;43.570;27.832;2024-01-15T08:30:08;19.38;;;17.63;;
9716;SDS011;4897;43.570;27.832;2024-01-15T08:32:36;17.55;;;16.23;;
9716;SDS011;4897;43.570;27.832;2024-01-15T08:35:07;18.23;;;16.55;;
9716;SDS011;4897;43.570;27.832;2024-01-15T08:37:34;17.33;;;15.88;;
9716;SDS011;4897;43.570;27.832;2024-01-15T08:40:04;17.60;;;16.10;;
9716;SDS011;4897;43.570;27.832;2024-01-15T08:42:32;17.48;;;15.70;;
9716;SDS011;4897;43.570;27.832;2024-01-15T08:44:59;16.52;;;14.80;;
9716;SDS011;4897;43.570;27.832;2024-01-15T08:47:26;16.52;;;15.23;;
9716;SDS011;4897;43.570;27.832;2024-01-15T08:49:53;17.60;;;16.10;;
9716;SDS011;4897;43.570;27.832;2024-01-15T08:52:20;19.23;;;17.20;;
9716;SDS011;4897;43.570;27.832;2024-01-15T08:54:47;19.25;;;17.42;;
9716;SDS011;4897;43.570;27.832;2024-01-15T08:57:14;19.23;;;17.52;;
9716;SDS011;4897;43.570;27.832;2024-01-15T08:59:42;17.75;;;15.45;;
9716;SDS011;4897;43.570;27.832;2024-01-15T09:02:10;16.83;;;15.07;;
9716;SDS011;4897;43.570;27.832;2024-01-15T09:04:37;17.52;;;15.88;;
9716;SDS011;4897;43.570;27.832;2024-01-15T09:07:04;16.75;;;15.32;;
9716;SDS011;4897;43.570;27.832;2024-01-15T09:09:31;19.80;;;17.85;;
9716;SDS011;4897;43.570;27.832;2024-01-15T09:11:58;19.83;;;17.77;;
9716;SDS011;4897;43.570;27.832;2024-01-15T09:14:24;19.02;;;16.55;;
9716;SDS011;4897;43.570;27.832;2024-01-15T09:16:53;17.05;;;15.75;;
9716;SDS011;4897;43.570;27.832;2024-01-15T09:19:24;18.17;;;16.42;;
9716;SDS011;4897;43.570;27.832;2024-01-15T09:21:51;18.00;;;16.40;;
9716;SDS011;4897;43.570;27.832;2024-01-15T09:24:18;17.80;;;16.38;;
9716;SDS011;4897;43.570;27.832;2024-01-15T09:26:45;20.38;;;18.40;;
9716;SDS011;4897;43.570;27.832;2024-01-15T09:29:12;19.40;;;17.70;;
9716;SDS011;4897;43.570;27.832;2024-01-15T09:31:41;17.70;;;15.90;;
9716;SDS011;4897;43.570;27.832;2024-01-15T09:34:09;17.45;;;15.80;;
9716;SDS011;4897;43.570;27.832;2024-01-15T09:36:38;17.63;;;16.25;;
9716;SDS011;4897;43.570;27.832;2024-01-15T09:39:07;18.65;;;16.83;;
9716;SDS011;4897;43.570;27.832;2024-01-15T09:41:36;17.98;;;16.52;;
9716;SDS011;4897;43.570;27.832;2024-01-15T09:44:04;18.88;;;16.65;;
9716;SDS011;4897;43.570;27.832;2024-01-15T09:46:32;19.20;;;17.35;;
9716;SDS011;4897;43.570;27.832;2024-01-15T09:48:59;18.92;;;17.15;;
9716;SDS011;4897;43.570;27.832;2024-01-15T09:51:29;18.98;;;17.48;;
9716;SDS011;4897;43.570;27.832;2024-01-15T09:53:58;19.95;;;18.45;;
9716;SDS011;4897;43.570;27.832;2024-01-15T09:56:25;19.25;;;17.55;;
9716;SDS011;4897;43.570;27.832;2024-01-15T09:58:52;21.00;;;19.40;;
9716;SDS011;4897;43.570;27.832;2024-01-15T10:01:20;19.63;;;18.13;;
9716;SDS011;4897;43.570;27.832;2024-01-15T10:03:47;19.33;;;17.73;;
9716;SDS011;4897;43.570;27.832;2024-01-15T10:06:14;19.33;;;17.55;;
9716;SDS011;4897;43.570;27.832;2024-01-15T10:08:47;21.33;;;19.08;;
9716;SDS011;4897;43.570;27.832;2024-01-15T10:11:14;19.40;;;17.80;;
9716;SDS011;4897;43.570;27.832;2024-01-15T10:13:42;20.23;;;18.50;;
9716;SDS011;4897;43.570;27.832;2024-01-15T10:16:09;21.33;;;19.45;;
9716;SDS011;4897;43.570;27.832;2024-01-15T10:18:37;22.13;;;20.02;;
9716;SDS011;4897;43.570;27.832;2024-01-15T10:21:07;22.88;;;20.67;;
9716;SDS011;4897;43.570;27.832;2024-01-15T10:23:34;22.20;;;20.30;;
9716;SDS011;4897;43.570;27.832;2024-01-15T10:26:06;23.92;;;21.67;;
9716;SDS011;4897;43.570;27.832;2024-01-15T10:28:33;22.40;;;20.40;;
9716;SDS011;4897;43.570;27.832;2024-01-15T10:31:00;22.90;;;20.77;;
9716;SDS011;4897;43.570;27.832;2024-01-15T10:33:27;22.85;;;20.65;;
9716;SDS011;4897;43.570;27.832;2024-01-15T10:35:54;22.50;;;20.55;;
9716;SDS011;4897;43.570;27.832;2024-01-15T10:38:22;22.50;;;20.50;;
9716;SDS011;4897;43.570;27.832;2024-01-15T10:40:50;21.65;;;19.75;;
9716;SDS011;4897;43.570;27.832;2024-01-15T10:43:20;23.17;;;21.17;;
9716;SDS011;4897;43.570;27.832;2024-01-15T10:45:47;20.10;;;18.00;;
9716;SDS011;4897;43.570;27.832;2024-01-15T10:48:16;22.92;;;20.88;;
9716;SDS011;4897;43.570;27.832;2024-01-15T10:50:44;19.27;;;17.48;;
9716;SDS011;4897;43.570;27.832;2024-01-15T10:53:12;27.35;;;25.15;;
9716;SDS011;4897;43.570;27.832;2024-01-15T10:55:40;20.70;;;18.52;;
9716;SDS011;4897;43.570;27.832;2024-01-15T10:58:09;20.52;;;18.58;;
9716;SDS011;4897;43.570;27.832;2024-01-15T11:00:43;22.52;;;20.48;;
9716;SDS011;4897;43.570;27.832;2024-01-15T11:03:10;23.92;;;21.52;;
9716;SDS011;4897;43.570;27.832;2024-01-15T11:05:38;24.08;;;21.85;;
9716;SDS011;4897;43.570;27.832;2024-01-15T11:08:08;22.77;;;20.75;;
9716;SDS011;4897;43.570;27.832;2024-01-15T11:10:39;21.92;;;19.70;;
9716;SDS011;4897;43.570;27.832;2024-01-15T11:13:08;23.63;;;21.30;;
9716;SDS011;4897;43.570;27.832;2024-01-15T11:15:58;22.13;;;19.90;;
9716;SDS011;4897;43.570;27.832;2024-01-15T11:18:32;22.33;;;20.27;;
9716;SDS011;4897;43.570;27.832;2024-01-15T11:21:20;22.15;;;19.85;;
9716;SDS011;4897;43.570;27.832;2024-01-15T11:23:52;22.58;;;20.55;;
9716;SDS011;4897;43.570;27.832;2024-01-15T11:26:29;22.40;;;20.20;;
9716;SDS011;4897;43.570;27.832;2024-01-15T11:28:58;23.65;;;21.55;;
9716;SDS011;4897;43.570;27.832;2024-01-15T11:31:28;22.67;;;20.58;;
9716;SDS011;4897;43.570;27.832;2024-01-15T11:33:55;23.20;;;21.10;;
9716;SDS011;4897;43.570;27.832;2024-01-15T11:39:41;23.77;;;21.42;;
9716;SDS011;4897;43.570;27.832;2024-01-15T11:42:12;24.05;;;21.75;;
9716;SDS011;4897;43.570;27.832;2024-01-15T11:44:44;24.92;;;22.08;;
9716;SDS011;4897;43.570;27.832;2024-01-15T11:47:12;22.95;;;20.83;;
9716;SDS011;4897;43.570;27.832;2024-01-15T11:52:34;22.77;;;20.58;;
9716;SDS011;4897;43.570;27.832;2024-01-15T11:55:06;23.45;;;21.15;;
9716;SDS011;4897;43.570;27.832;2024-01-15T11:57:41;23.45;;;21.35;;
9716;SDS011;4897;43.570;27.832;2024-01-15T12:00:11;24.27;;;21.98;;
9716;SDS011;4897;43.570;27.832;2024-01-15T12:02:45;26.10;;;23.45;;
9716;SDS011;4897;43.570;27.832;2024-01-15T12:05:13;25.63;;;23.02;;
9716;SDS011;4897;43.570;27.832;2024-01-15T12:07:41;27.10;;;23.58;;
9716;SDS011;4897;43.570;27.832;2024-01-15T12:10:09;27.67;;;24.77;;
9716;SDS011;4897;43.570;27.832;2024-01-15T12:12:41;26.42;;;23.80;;
9716;SDS011;4897;43.570;27.832;2024-01-15T12:15:20;23.02;;;20.63;;
9716;SDS011;4897;43.570;27.832;2024-01-15T12:17:49;25.77;;;23.27;;
9716;SDS011;4897;43.570;27.832;2024-01-15T12:20:16;26.08;;;21.85;;
9716;SDS011;4897;43.570;27.832;2024-01-15T12:22:44;25.00;;;22.55;;
9716;SDS011;4897;43.570;27.832;2024-01-15T12:25:12;23.67;;;21.50;;
9716;SDS011;4897;43.570;27.832;2024-01-15T12:27:39;26.75;;;24.20;;
9716;SDS011;4897;43.570;27.832;2024-01-15T12:30:07;25.55;;;22.95;;
9716;SDS011;4897;43.570;27.832;2024-01-15T12:32:36;28.45;;;25.75;;
9716;SDS011;4897;43.570;27.832;2024-01-15T12:35:05;25.38;;;22.75;;
9716;SDS011;4897;43.570;27.832;2024-01-15T12:37:34;26.75;;;24.33;;
9716;SDS011;4897;43.570;27.832;2024-01-15T12:40:02;25.80;;;23.27;;
9716;SDS011;4897;43.570;27.832;2024-01-15T12:42:29;25.40;;;23.02;;
9716;SDS011;4897;43.570;27.832;2024-01-15T12:44:56;25.88;;;23.48;;
9716;SDS011;4897;43.570;27.832;2024-01-15T12:47:22;27.38;;;24.70;;
9716;SDS011;4897;43.570;27.832;2024-01-15T12:49:51;26.67;;;23.85;;
9716;SDS011;4897;43.570;27.832;2024-01-15T12:52:21;27.65;;;24.60;;
9716;SDS011;4897;43.570;27.832;2024-01-15T12:54:48;30.73;;;27.58;;
9716;SDS011;4897;43.570;27.832;2024-01-15T12:57:15;28.65;;;25.65;;
9716;SDS011;4897;43.570;27.832;2024-01-15T12:59:42;29.30;;;25.55;;
9716;SDS011;4897;43.570;27.832;2024-01-15T13:02:09;28.70;;;24.00;;
9716;SDS011;4897;43.570;27.832;2024-01-15T13:04:37;27.77;;;25.00;;
9716;SDS011;4897;43.570;27.832;2024-01-15T13:07:04;26.17;;;23.38;;
9716;SDS011;4897;43.570;27.832;2024-01-15T13:09:32;25.80;;;23.27;;
9716;SDS011;4897;43.570;27.832;2024-01-15T13:12:00;27.30;;;24.80;;
9716;SDS011;4897;43.570;27.832;2024-01-15T13:14:27;27.95;;;25.17;;
9716;SDS011;4897;43.570;27.832;2024-01-15T13:16:54;26.90;;;24.40;;
9716;SDS011;4897;43.570;27.832;2024-01-15T13:19:22;26.95;;;24.20;;
9716;SDS011;4897;43.570;27.832;2024-01-15T13:21:49;25.42;;;23.02;;
9716;SDS011;4897;43.570;27.832;2024-01-15T13:24:18;27.25;;;24.50;;
9716;SDS011;4897;43.570;27.832;2024-01-15T13:26:46;26.90;;;24.20;;
9716;SDS011;4897;43.570;27.832;2024-01-15T13:29:13;25.48;;;22.73;;
9716;SDS011;4897;43.570;27.832;2024-01-15T13:31:40;25.50;;;22.92;;
9716;SDS011;4897;43.570;27.832;2024-01-15T13:34:07;26.80;;;24.10;;
9716;SDS011;4897;43.570;27.832;2024-01-15T13:36:34;25.35;;;23.05;;
9716;SDS011;4897;43.570;27.832;2024-01-15T13:39:04;26.55;;;24.02;;
9716;SDS011;4897;43.570;27.832;2024-01-15T13:41:34;24.67;;;22.17;;
9716;SDS011;4897;43.570;27.832;2024-01-15T13:44:04;26.25;;;23.85;;
9716;SDS011;4897;43.570;27.832;2024-01-15T13:46:35;27.38;;;24.80;;
9716;SDS011;4897;43.570;27.832;2024-01-15T13:49:03;26.17;;;23.40;;
9716;SDS011;4897;43.570;27.832;2024-01-15T13:51:31;26.05;;;23.45;;
9716;SDS011;4897;43.570;27.832;2024-01-15T13:53:58;26.27;;;24.00;;
9716;SDS011;4897;43.570;27.832;2024-01-15T13:56:25;25.73;;;23.33;;
9716;SDS011;4897;43.570;27.832;2024-01-15T13:58:56;24.75;;;22.25;;
9716;SDS011;4897;43.570;27.832;2024-01-15T14:01:25;24.95;;;22.42;;
9716;SDS011;4897;43.570;27.832;2024-01-15T14:03:52;26.60;;;23.80;;
9716;SDS011;4897;43.570;27.832;2024-01-15T14:06:19;25.70;;;23.13;;
9716;SDS011;4897;43.570;27.832;2024-01-15T14:08:46;24.63;;;22.17;;
9716;SDS011;4897;43.570;27.832;2024-01-15T14:11:13;23.27;;;20.92;;
9716;SDS011;4897;43.570;27.832;2024-01-15T14:13:40;22.05;;;20.05;;
9716;SDS011;4897;43.570;27.832;2024-01-15T14:16:07;22.25;;;20.25;;
9716;SDS011;4897;43.570;27.832;2024-01-15T14:18:36;23.23;;;20.52;;
9716;SDS011;4897;43.570;27.832;2024-01-15T14:21:03;23.73;;;21.42;;
9716;SDS011;4897;43.570;27.832;2024-01-15T14:23:30;23.27;;;21.08;;
9716;SDS011;4897;43.570;27.832;2024-01-15T14:25:57;24.13;;;21.80;;
9716;SDS011;4897;43.570;27.832;2024-01-15T14:28:24;25.10;;;22.50;;
9716;SDS011;4897;43.570;27.832;2024-01-15T14:30:51;25.83;;;23.35;;
9716;SDS011;4897;43.570;27.832;2024-01-15T14:33:17;25.33;;;23.02;;
9716;SDS011;4897;43.570;27.832;2024-01-15T14:35:47;23.65;;;21.65;;
9716;SDS011;4897;43.570;27.832;2024-01-15T14:38:14;24.48;;;22.15;;
9716;SDS011;4897;43.570;27.832;2024-01-15T14:40:41;31.38;;;28.38;;
9716;SDS011;4897;43.570;27.832;2024-01-15T14:43:09;25.27;;;22.85;;